• Join FlightAware (Why Join?)
  • Login
  • US Flag 
09:26PM EDT


 

Airport Tracker/Info


-or-


 

Live Flight TrackerFlight Track Log ✈ SWA471 ✈ 18-Apr-2013 ✈ KMCI - KDAL

Flight Track Log - Related Links

Times and Time Zones

All times are in EDT time to prevent confusion due to time zone crossing. See the SWA471 flight status page for this flight to view local times or setup timezone preferences in your user account.

Time Position Orientation Groundspeed Altitude Reporting Facility
EDT Latitude Longitude Course Direction KTS MPH feet Rate Location/Type
11:59PM 39.3167 -94.7167 322° Northwest 157 181 1,700  Level Kansas City TRACON
12:00AM 39.3333 -94.7333 322° Northwest 150 173 2,500 2,340 Climbing Kansas City TRACON
12:01AM 39.3333 -94.7833 270° West 207 238 4,800 2,460 Climbing Kansas City TRACON
12:02AM 39.2822 -94.8567 228° Southwest 274 315 7,700 2,700 Climbing Kansas City Center
12:03AM 39.2047 -94.8658 185° South 289 333 10,700 2,400 Climbing Kansas City Center
12:04AM 39.1119 -94.8786 186° South 350 403 12,700 2,700 Climbing Kansas City Center
12:05AM 39.0031 -94.8944 186° South 348 400 16,200 2,700 Climbing Kansas City Center
12:06AM 38.9039 -94.9083 186° South 369 425 18,100 2,460 Climbing Kansas City Center
12:07AM 38.8022 -94.9211 186° South 380 437 21,300 3,240 Climbing Kansas City Center
12:08AM 38.6981 -94.9439 190° South 339 390 24,900 2,280 Climbing Kansas City Center
12:09AM 38.6103 -94.9756 196° South 341 392 26,000 1,260 Climbing Kansas City Center
12:10AM 38.5175 -95.0067 195° South 357 411 27,500 1,860 Climbing Kansas City Center
12:11AM 38.4106 -95.0450 196° South 357 411 29,800 1,920 Climbing Kansas City Center
12:12AM 38.3211 -95.0758 195° South 349 402 31,400 1,080 Climbing Kansas City Center
12:13AM 38.2178 -95.1125 196° South 346 398 32,000 240 Climbing Kansas City Center
12:14AM 38.1250 -95.1431 195° South 354 407 32,000 180 Level Kansas City Center
12:15AM 38.0350 -95.1733 195° South 353 406 32,400 480 Climbing Kansas City Center
12:16AM 37.9272 -95.2111 195° South 351 404 33,000 900 Climbing Kansas City Center
12:17AM 37.8325 -95.2414 194° South 350 403 34,300 1,140 Climbing Kansas City Center
12:18AM 37.7392 -95.2781 197° South 349 402 35,300 720 Climbing Kansas City Center
12:19AM 37.6444 -95.3072 194° South 350 403 35,800 300 Climbing Kansas City Center
12:20AM 37.5458 -95.3400 195° South 360 414 36,000 60 Climbing Kansas City Center
12:21AM 37.4489 -95.3744 196° South 362 417 36,000  Level Kansas City Center
12:22AM 37.3514 -95.4061 194° South 361 415 36,000  Level Kansas City Center
12:23AM 37.2536 -95.4383 195° South 362 417 36,000  Level Kansas City Center
12:24AM 37.1556 -95.4722 195° South 364 419 36,000  Level Kansas City Center
12:25AM 37.0572 -95.5047 195° South 364 419 36,000  Level Kansas City Center
12:26AM 36.9592 -95.5361 194° South 363 418 36,000  Level Kansas City Center
12:27AM 36.8600 -95.5697 195° South 367 422 36,000  Level Kansas City Center
12:28AM 36.7628 -95.6022 195° South 365 420 36,000  Level Kansas City Center
12:29AM 36.6475 -95.6403 195° South 360 414 36,000  Level Kansas City Center
12:30AM 36.5592 -95.6692 195° South 361 415 36,000  Level Kansas City Center
12:31AM 36.4617 -95.7006 195° South 362 417 36,000  Level Kansas City Center
12:32AM 36.3650 -95.7319 195° South 360 414 36,000  Level Kansas City Center
12:33AM 36.2619 -95.7669 195° South 360 414 36,000  Level Kansas City Center
12:34AM 36.1619 -95.7778 185° South 372 428 36,000  Level Kansas City Center
12:35AM 36.0572 -95.7431 165° South 389 448 36,000  Level Kansas City Center
12:36AM 35.9564 -95.7458 181° South 369 425 36,000  Level Kansas City Center
12:37AM 35.8583 -95.7664 190° South 357 411 36,000  Level Kansas City Center
12:38AM 35.7619 -95.7892 191° South 354 407 36,000  Level Kansas City Center
12:39AM 35.6650 -95.8103 190° South 352 405 36,000  Level Kansas City Center
12:40AM 35.6069 -95.8256 192° South 357 411 36,000  Level Fort Worth Center
12:41AM 35.5111 -95.8478 191° South 352 405 36,000  Level Fort Worth Center
12:42AM 35.4133 -95.8700 190° South 352 405 36,000  Level Fort Worth Center
12:43AM 35.3136 -95.8897 189° South 359 413 36,000  Level Fort Worth Center
12:44AM 35.2158 -95.9117 190° South 359 413 36,000  Level Fort Worth Center
12:45AM 35.1203 -95.9339 191° South 354 407 36,000  Level Fort Worth Center
12:46AM 35.0244 -95.9531 189° South 354 407 36,000  Level Fort Worth Center
12:47AM 34.9267 -95.9750 190° South 354 407 36,000  Level Fort Worth Center
12:48AM 34.8289 -95.9969 190° South 354 407 36,000  Level Fort Worth Center
12:49AM 34.7353 -96.0186 191° South 354 407 36,000  Level Fort Worth Center
12:50AM 34.6375 -96.0406 190° South 354 407 36,000  Level Fort Worth Center
12:51AM 34.5417 -96.0597 189° South 354 407 36,000  Level Fort Worth Center
12:52AM 34.4481 -96.0814 191° South 349 402 36,000  Level Fort Worth Center
12:53AM 34.3522 -96.1031 191° South 354 407 36,000  Level Fort Worth Center
12:54AM 34.2544 -96.1244 190° South 354 407 36,000 -60 Level Fort Worth Center
12:55AM 34.1608 -96.1458 191° South 354 407 35,900 -1,560 Descending Fort Worth Center
12:56AM 34.0692 -96.1622 188° South 348 400 32,900 -3,240 Descending Fort Worth Center
12:57AM 33.9753 -96.1814 190° South 343 395 29,500 -3,300 Descending Fort Worth Center
12:58AM 33.8817 -96.2025 191° South 349 402 26,400 -2,760 Descending Fort Worth Center
12:59AM 33.7881 -96.2239 191° South 354 407 24,000 -2,340 Descending Fort Worth Center
01:00AM 33.6983 -96.2425 190° South 339 390 21,800 -2,520 Descending Fort Worth Center
01:01AM 33.6047 -96.2611 189° South 334 384 19,000 -2,520 Descending Fort Worth Center
01:02AM 33.5131 -96.2822 191° South 334 384 16,800 -2,460 Descending Fort Worth Center
01:03AM 33.4256 -96.3008 190° South 334 384 14,100 -2,460 Descending Fort Worth Center
01:04AM 33.3358 -96.3194 190° South 334 384 11,900 -2,100 Descending Fort Worth Center
01:05AM 33.2361 -96.3556 197° South 362 417 10,000 -1,020 Descending Fort Worth Center
01:06AM 33.1633 -96.4183 216° Southwest 345 397 9,900 -600 Descending Fort Worth Center
01:07AM 33.1075 -96.4711 218° Southwest 311 358 8,900 -1,320 Descending Fort Worth Center
01:08AM 33.0453 -96.5286 218° Southwest 275 316 7,300 -1,500 Descending Fort Worth Center
01:09AM 32.9872 -96.5836 218° Southwest 267 307 6,000 -1,200 Descending Fort Worth Center
01:11AM 32.9047 -96.7619 220° Southwest  Level FlightAware Approximate
01:12AM 32.8333 -96.7167 220° Southwest 213 245 2,900  Level Dallas / Fort Worth TRACON
01:13AM 32.8000 -96.7667 232° Southwest 175 201 1,900 -780 Descending Dallas / Fort Worth TRACON
01:14AM 32.8167 -96.8000 301° West 135 155 1,400 -540 Descending Dallas / Fort Worth TRACON